Time;durP1;ratioP1;P1;durP2;ratioP2;P2;SDS_P1;SDS_P2;PMS_P1;PMS_P2;Temp;Humidity;BMP_temperature;BMP_pressure;BME280_temperature;BME280_humidity;BME280_pressure;Samples;Min_cycle;Max_cycle;Signal;HPM_P1;HPM_P2
2022/09/01 00:02:07;;;;;;;7.07;6.47;;;20.60;83.60;21.20;96744.00;;;;5115607;28;20231;-85
2022/09/01 00:04:38;;;;;;;7.00;6.30;;;20.60;83.50;21.20;96751.00;;;;5115695;28;20210;-85
2022/09/01 00:07:07;;;;;;;6.70;6.10;;;20.60;83.40;21.20;96753.00;;;;5114933;28;20549;-85
2022/09/01 00:09:36;;;;;;;6.50;6.00;;;20.60;83.50;21.20;96748.00;;;;5114947;28;20812;-85
2022/09/01 00:12:08;;;;;;;6.33;5.90;;;20.60;83.60;21.20;96754.00;;;;5114425;28;20210;-85
2022/09/01 00:14:40;;;;;;;6.67;6.07;;;20.60;83.60;21.20;96761.00;;;;5114371;28;20196;-85
2022/09/01 00:17:11;;;;;;;6.80;6.20;;;20.60;83.50;21.20;96753.00;;;;5113916;28;20204;-85
2022/09/01 00:19:39;;;;;;;7.13;6.10;;;20.60;83.50;21.20;96759.00;;;;5114352;28;20576;-85
2022/09/01 00:22:07;;;;;;;7.20;6.57;;;20.60;83.50;21.20;96754.00;;;;5114875;28;20199;-85
2022/09/01 00:24:35;;;;;;;6.93;6.33;;;20.60;83.50;21.20;96749.00;;;;5115557;28;20261;-85
2022/09/01 00:27:04;;;;;;;6.93;6.33;;;20.60;83.50;21.20;96749.00;;;;5115110;28;20271;-84
2022/09/01 00:29:32;;;;;;;6.77;6.17;;;20.60;83.50;21.20;96746.00;;;;5115136;28;20267;-85
2022/09/01 00:31:59;;;;;;;7.47;6.77;;;20.60;83.50;21.20;96745.00;;;;5115353;28;20203;-85
2022/09/01 00:34:27;;;;;;;7.87;7.07;;;20.60;83.50;21.20;96745.00;;;;5114651;28;20240;-85
2022/09/01 00:36:54;;;;;;;7.00;6.40;;;20.60;83.50;21.20;96744.00;;;;5115032;28;20202;-85
2022/09/01 00:39:21;;;;;;;7.13;6.43;;;20.60;83.60;21.20;96746.00;;;;5114826;28;20219;-85
2022/09/01 00:41:50;;;;;;;7.67;7.00;;;20.60;83.60;21.20;96744.00;;;;5114304;28;20251;-85
2022/09/01 00:44:22;;;;;;;7.07;6.47;;;20.60;83.50;21.20;96745.00;;;;5113935;28;20562;-85
2022/09/01 00:46:52;;;;;;;7.47;6.77;;;20.60;83.70;21.20;96728.00;;;;5113884;28;20261;-85
2022/09/01 00:49:26;;;;;;;7.23;6.57;;;20.60;83.80;21.20;96740.00;;;;5113603;28;20225;-85
2022/09/01 00:51:58;;;;;;;7.57;6.87;;;20.60;83.70;21.20;96736.00;;;;5113859;28;20208;-85
2022/09/01 00:54:33;;;;;;;7.43;6.70;;;20.60;83.70;21.20;96734.00;;;;5114091;28;20274;-85
2022/09/01 00:57:04;;;;;;;7.73;7.03;;;20.70;83.80;21.20;96732.00;;;;5115364;28;20175;-85
2022/09/01 00:59:33;;;;;;;7.67;6.87;;;20.70;83.80;21.20;96735.00;;;;5114809;28;20242;-84
2022/09/01 01:02:00;;;;;;;7.73;7.03;;;20.70;83.80;21.20;96732.00;;;;5114176;28;20269;-85
2022/09/01 01:04:29;;;;;;;7.27;6.67;;;20.70;83.80;21.30;96730.00;;;;5114129;28;20208;-85
2022/09/01 01:07:01;;;;;;;7.87;7.17;;;20.70;83.90;21.30;96730.00;;;;5113498;28;20198;-85
2022/09/01 01:09:32;;;;;;;7.93;7.13;;;20.70;83.80;21.30;96733.00;;;;5114078;28;20214;-85
2022/09/01 01:12:04;;;;;;;7.77;7.17;;;20.70;83.70;21.30;96735.00;;;;5113671;28;20247;-86
2022/09/01 01:14:49;;;;;;;7.13;6.53;;;20.70;83.60;21.30;96726.00;;;;5113910;28;20539;-85
2022/09/01 01:17:24;;;;;;;7.40;6.80;;;20.70;83.50;21.30;96725.00;;;;5112743;28;20294;-85
2022/09/01 01:23:05;;;;;;;7.17;6.67;;;20.70;83.20;21.30;96734.00;;;;5112779;28;20182;-86
2022/09/01 01:25:39;;;;;;;8.03;7.07;;;20.70;83.90;21.20;96728.00;;;;5111941;28;20203;-86
2022/09/01 01:28:12;;;;;;;7.67;6.97;;;20.70;83.30;21.20;96728.00;;;;5113319;28;20210;-86
2022/09/01 01:30:43;;;;;;;7.60;6.97;;;20.70;83.20;21.20;96730.00;;;;5113395;28;20278;-86
2022/09/01 01:33:11;;;;;;;7.40;6.77;;;20.70;83.20;21.20;96724.00;;;;5113279;28;20206;-85
2022/09/01 01:35:38;;;;;;;7.70;7.00;;;20.60;83.20;21.20;96728.00;;;;5113319;28;20796;-85
2022/09/01 01:38:07;;;;;;;7.87;7.10;;;20.60;83.20;21.20;96720.00;;;;5113544;28;20258;-86
2022/09/01 01:40:37;;;;;;;7.90;7.20;;;20.60;83.20;21.20;96722.00;;;;5113379;28;20224;-86
2022/09/01 01:43:05;;;;;;;8.13;7.33;;;20.60;83.30;21.20;96718.00;;;;5113006;28;20191;-85
2022/09/01 01:45:33;;;;;;;7.37;6.77;;;20.60;83.40;21.20;96727.00;;;;5113634;28;20644;-86
2022/09/01 01:48:11;;;;;;;7.73;7.03;;;20.60;83.20;21.20;96718.00;;;;5112982;28;20274;-86
2022/09/01 01:50:48;;;;;;;7.27;6.67;;;20.60;83.10;21.20;96711.00;;;;5111967;28;20246;-86
2022/09/01 01:53:16;;;;;;;7.17;6.57;;;20.60;83.00;21.10;96717.00;;;;5112064;28;20273;-86
2022/09/01 01:55:47;;;;;;;7.03;6.43;;;20.60;82.90;21.20;96715.00;;;;5111674;28;20192;-86
2022/09/01 01:58:14;;;;;;;7.43;6.83;;;20.60;83.70;21.10;96713.00;;;;5111994;28;20733;-84
2022/09/01 02:00:45;;;;;;;7.43;6.80;;;20.60;83.10;21.10;96712.00;;;;5112305;28;20224;-86
2022/09/01 02:03:16;;;;;;;7.80;7.10;;;20.60;83.00;21.10;96715.00;;;;5112194;28;20219;-86
2022/09/01 02:05:44;;;;;;;7.57;6.97;;;20.60;83.10;21.10;96712.00;;;;5112436;28;20193;-85
2022/09/01 02:08:14;;;;;;;7.97;7.27;;;20.60;83.00;21.10;96704.00;;;;5112580;28;20702;-85
2022/09/01 02:10:46;;;;;;;8.23;7.43;;;20.60;83.00;21.10;96704.00;;;;5113355;28;20211;-85
2022/09/01 02:13:17;;;;;;;8.03;7.27;;;20.60;82.90;21.10;96699.00;;;;5113155;28;20187;-84
2022/09/01 02:15:52;;;;;;;8.03;7.07;;;20.60;82.90;21.10;96699.00;;;;5113276;28;20186;-85
2022/09/01 02:18:23;;;;;;;8.10;7.50;;;20.50;82.80;21.00;96696.00;;;;5112919;28;20600;-86
2022/09/01 02:20:52;;;;;;;8.23;7.47;;;20.60;82.90;21.10;96701.00;;;;5113069;28;20219;-85
2022/09/01 02:23:23;;;;;;;7.93;7.23;;;20.60;82.80;21.00;96701.00;;;;5111805;28;20211;-85
2022/09/01 02:25:56;;;;;;;8.13;7.43;;;20.50;82.70;21.00;96700.00;;;;5111768;28;20725;-85
2022/09/01 02:28:26;;;;;;;7.70;7.00;;;20.50;82.70;21.00;96701.00;;;;5111789;28;20206;-85
2022/09/01 02:30:58;;;;;;;8.17;7.47;;;20.50;82.70;21.00;96698.00;;;;5112046;28;20961;-85
2022/09/01 02:33:27;;;;;;;8.70;7.83;;;20.50;82.60;21.00;96698.00;;;;5111526;28;20277;-85
2022/09/01 02:35:57;;;;;;;8.30;7.30;;;20.50;82.60;21.00;96696.00;;;;5111802;28;20194;-85
2022/09/01 02:38:28;;;;;;;7.90;7.10;;;20.40;82.60;21.00;96701.00;;;;5112157;28;20214;-86
2022/09/01 02:40:58;;;;;;;7.83;7.17;;;20.40;82.60;21.00;96698.00;;;;5112702;28;20219;-85
2022/09/01 02:43:27;;;;;;;7.57;6.90;;;20.40;82.70;21.00;96696.00;;;;5112657;28;20262;-86
2022/09/01 02:45:58;;;;;;;8.03;7.27;;;20.40;82.70;20.90;96696.00;;;;5112626;28;20199;-86
2022/09/01 02:48:32;;;;;;;8.13;7.33;;;20.40;82.60;20.90;96701.00;;;;5112538;28;20346;-86
2022/09/01 02:51:01;;;;;;;7.83;7.20;;;20.40;82.60;20.90;96701.00;;;;5112419;28;20224;-86
2022/09/01 02:53:29;;;;;;;8.13;7.37;;;20.40;82.60;20.90;96698.00;;;;5112317;28;20243;-85
2022/09/01 02:55:58;;;;;;;8.37;7.57;;;20.40;82.60;20.90;96699.00;;;;5112207;28;20204;-85
2022/09/01 02:58:26;;;;;;;8.40;7.60;;;20.40;82.60;20.90;96690.00;;;;5111849;28;20268;-86
2022/09/01 03:00:56;;;;;;;8.27;7.10;;;20.40;82.70;20.90;96697.00;;;;5111218;28;20303;-85
2022/09/01 03:03:35;;;;;;;7.50;6.90;;;20.40;82.70;20.90;96696.00;;;;5111483;28;20200;-86
2022/09/01 03:06:08;;;;;;;8.27;7.43;;;20.40;82.60;20.90;96697.00;;;;5111452;28;20210;-86
2022/09/01 03:08:38;;;;;;;11.27;7.70;;;20.40;82.70;20.90;96695.00;;;;5111387;28;20219;-85
2022/09/01 03:11:09;;;;;;;7.57;6.97;;;20.40;82.70;20.80;96690.00;;;;5111328;28;20306;-86
2022/09/01 03:13:39;;;;;;;7.87;7.17;;;20.40;82.60;20.80;96694.00;;;;5111578;28;20191;-86
2022/09/01 03:16:07;;;;;;;7.97;7.27;;;20.30;82.60;20.80;96694.00;;;;5113659;28;20236;-86
2022/09/01 03:18:35;;;;;;;8.33;7.53;;;20.30;82.70;20.80;96690.00;;;;5116684;28;20203;-86
2022/09/01 03:21:04;;;;;;;9.03;7.90;;;20.30;82.70;20.80;96687.00;;;;5116685;28;20732;-86
2022/09/01 03:23:33;;;;;;;8.07;7.37;;;20.30;82.60;20.80;96692.00;;;;5115839;28;20286;-86
2022/09/01 03:26:01;;;;;;;7.87;7.07;;;20.30;82.60;20.80;96692.00;;;;5116056;28;20206;-86
2022/09/01 03:28:30;;;;;;;8.77;7.93;;;20.30;82.50;20.80;96694.00;;;;5115830;28;20247;-86
2022/09/01 03:30:59;;;;;;;8.60;7.80;;;20.30;82.30;20.80;96685.00;;;;5115326;28;20227;-85
2022/09/01 03:33:28;;;;;;;15.80;8.13;;;20.30;82.40;20.80;96683.00;;;;5115575;28;20728;-86
2022/09/01 03:36:04;;;;;;;8.00;7.20;;;20.20;82.30;20.70;96679.00;;;;5115115;28;20203;-86
2022/09/01 03:38:33;;;;;;;8.00;7.40;;;20.20;82.30;20.70;96685.00;;;;5114831;28;20677;-86
2022/09/01 03:41:05;;;;;;;8.10;7.30;;;20.20;82.10;20.70;96684.00;;;;5114588;28;20260;-86
2022/09/01 03:43:34;;;;;;;8.03;7.10;;;20.20;82.10;20.70;96681.00;;;;5114629;28;20712;-85
2022/09/01 03:46:01;;;;;;;8.27;7.57;;;20.20;82.10;20.70;96682.00;;;;5114916;28;20210;-85
2022/09/01 03:48:30;;;;;;;8.13;7.33;;;20.20;82.10;20.70;96682.00;;;;5114304;28;20214;-86
2022/09/01 03:51:01;;;;;;;7.60;7.00;;;20.20;82.10;20.60;96681.00;;;;5115546;28;20226;-86
2022/09/01 03:53:36;;;;;;;7.67;7.03;;;20.10;82.00;20.60;96682.00;;;;5115565;28;20738;-86
2022/09/01 03:56:05;;;;;;;8.27;7.47;;;20.10;82.20;20.60;96679.00;;;;5115597;28;20205;-86
2022/09/01 03:58:34;;;;;;;8.07;7.27;;;20.10;82.30;20.60;96674.00;;;;5115278;28;20248;-86
2022/09/01 04:01:03;;;;;;;7.83;7.13;;;20.10;82.20;20.60;96667.00;;;;5115613;28;20686;-85
2022/09/01 04:03:33;;;;;;;7.67;7.07;;;20.10;82.20;20.60;96682.00;;;;5115201;28;20651;-84
2022/09/01 04:06:02;;;;;;;7.80;7.07;;;20.10;82.30;20.60;96678.00;;;;5115246;28;20230;-85
2022/09/01 04:08:30;;;;;;;8.13;7.43;;;20.10;82.40;20.60;96676.00;;;;5114928;28;20693;-84
2022/09/01 04:11:03;;;;;;;9.90;9.00;;;20.10;82.40;20.60;96673.00;;;;5113414;28;20259;-84
2022/09/01 04:13:36;;;;;;;9.17;8.33;;;20.10;82.30;20.60;96666.00;;;;5113685;27;20670;-82
2022/09/01 04:16:09;;;;;;;8.40;7.60;;;20.00;82.30;20.60;96663.00;;;;5113739;28;20709;-85
2022/09/01 04:18:35;;;;;;;8.07;7.33;;;20.00;82.30;20.60;96664.00;;;;5113583;28;20194;-85
2022/09/01 04:21:06;;;;;;;9.13;8.33;;;20.00;82.40;20.60;96663.00;;;;5113485;28;20276;-85
2022/09/01 04:26:07;;;;;;;8.80;8.00;;;20.00;82.40;20.60;96666.00;;;;5114094;28;20214;-85
2022/09/01 04:28:39;;;;;;;8.17;7.37;;;20.00;82.50;20.60;96661.00;;;;5114268;28;20245;-85
2022/09/01 04:31:13;;;;;;;8.20;7.47;;;20.00;82.50;20.60;96667.00;;;;5114446;28;20606;-85
2022/09/01 04:33:45;;;;;;;8.57;7.77;;;20.00;82.60;20.60;96663.00;;;;5095840;28;20555;-85
2022/09/01 04:36:21;;;;;;;8.40;7.53;;;20.00;82.70;20.60;96659.00;;;;5094138;28;20196;-85
2022/09/01 04:38:53;;;;;;;8.00;7.03;;;20.00;82.60;20.60;96661.00;;;;5121463;22;20226;-85
2022/09/01 04:41:20;;;;;;;7.97;7.27;;;20.00;82.60;20.60;96663.00;;;;5114043;28;20679;-85
2022/09/01 04:43:51;;;;;;;8.17;7.43;;;20.00;82.70;20.50;96665.00;;;;5113454;28;20304;-84
2022/09/01 04:46:19;;;;;;;8.33;7.60;;;20.00;82.80;20.60;96667.00;;;;5112648;28;20631;-85
2022/09/01 04:48:47;;;;;;;8.33;7.63;;;20.00;82.80;20.60;96670.00;;;;5112962;28;20222;-85
2022/09/01 04:51:16;;;;;;;8.20;7.43;;;20.00;82.80;20.60;96667.00;;;;5112992;28;20294;-85
2022/09/01 04:53:47;;;;;;;9.93;8.53;;;20.00;82.80;20.60;96665.00;;;;5113543;28;20621;-85
2022/09/01 04:56:18;;;;;;;8.70;8.00;;;20.00;83.00;20.60;96667.00;;;;5112644;28;20203;-85
2022/09/01 04:58:45;;;;;;;8.97;8.10;;;20.00;83.10;20.60;96661.00;;;;5111889;28;20317;-84
2022/09/01 05:01:21;;;;;;;9.43;8.50;;;20.00;83.30;20.60;96671.00;;;;5112863;28;20281;-84
2022/09/01 05:04:00;;;;;;;9.07;8.27;;;20.00;83.40;20.60;96672.00;;;;5091997;28;20736;-84
2022/09/01 05:06:32;;;;;;;9.40;8.10;;;20.10;83.50;20.60;96667.00;;;;5092086;28;20725;-85
2022/09/01 05:08:59;;;;;;;9.20;8.33;;;20.10;83.50;20.70;96671.00;;;;5091731;28;20223;-85
2022/09/01 05:11:27;;;;;;;8.83;7.93;;;20.10;83.50;20.70;96667.00;;;;5092270;28;20199;-85
2022/09/01 05:13:56;;;;;;;8.10;7.30;;;20.10;83.60;20.70;96669.00;;;;5092307;28;20282;-84
2022/09/01 05:16:26;;;;;;;9.47;8.57;;;20.10;83.50;20.70;96666.00;;;;5093346;28;20208;-85
2022/09/01 05:18:55;;;;;;;8.70;7.90;;;20.20;83.60;20.70;96660.00;;;;5109757;28;20306;-86
2022/09/01 05:21:27;;;;;;;9.10;8.20;;;20.10;83.50;20.80;96667.00;;;;5092252;28;20649;-86
2022/09/01 05:23:55;;;;;;;8.93;8.03;;;20.20;83.60;20.80;96664.00;;;;5091882;28;20192;-85
2022/09/01 05:26:27;;;;;;;8.80;8.00;;;20.20;83.60;20.80;96670.00;;;;5091898;28;20195;-86
2022/09/01 05:28:58;;;;;;;8.57;7.77;;;20.20;83.60;20.80;96669.00;;;;5091910;28;20642;-85
2022/09/01 05:31:36;;;;;;;8.80;8.00;;;20.20;83.50;20.80;96670.00;;;;5092212;28;20396;-83
2022/09/01 05:34:08;;;;;;;7.80;7.17;;;20.20;83.50;20.90;96676.00;;;;5090991;28;20256;-85
2022/09/01 05:36:38;;;;;;;7.93;7.23;;;20.20;83.40;20.90;96672.00;;;;5091976;28;20245;-86
2022/09/01 05:39:10;;;;;;;7.50;6.83;;;20.30;83.50;20.90;96668.00;;;;5091041;28;20227;-84
2022/09/01 05:41:39;;;;;;;8.37;7.57;;;20.30;83.50;20.90;96665.00;;;;5091056;28;20191;-85
2022/09/01 05:44:07;;;;;;;8.70;7.90;;;20.30;83.50;20.90;96664.00;;;;5090990;28;20206;-85
2022/09/01 05:46:38;;;;;;;8.67;7.77;;;20.30;83.50;20.90;96655.00;;;;5091655;28;20201;-85
2022/09/01 05:49:08;;;;;;;8.17;7.47;;;20.30;83.40;20.90;96664.00;;;;5091344;28;20231;-84
2022/09/01 05:51:36;;;;;;;8.10;7.33;;;20.30;83.50;20.90;96665.00;;;;5091516;28;20245;-85
2022/09/01 05:54:06;;;;;;;8.97;8.03;;;20.30;83.50;21.00;96660.00;;;;5091527;28;20214;-85
2022/09/01 05:56:38;;;;;;;8.37;7.57;;;20.30;83.50;21.00;96666.00;;;;5091105;28;20199;-85
2022/09/01 05:59:05;;;;;;;7.80;7.20;;;20.40;83.60;21.00;96660.00;;;;5091823;28;20211;-85
2022/09/01 06:01:32;;;;;;;8.10;7.40;;;20.40;83.70;21.00;96668.00;;;;5093035;28;20227;-85
2022/09/01 06:04:05;;;;;;;8.33;7.63;;;20.40;83.70;21.00;96669.00;;;;5112291;28;20199;-85
2022/09/01 06:06:43;;;;;;;8.10;7.40;;;20.40;83.70;21.10;96668.00;;;;5110808;28;20629;-85
2022/09/01 06:09:10;;;;;;;8.10;7.40;;;20.40;83.80;21.10;96668.00;;;;5111616;28;20227;-85
2022/09/01 06:11:38;;;;;;;8.90;7.97;;;20.50;83.90;21.10;96669.00;;;;5111823;28;20278;-85
2022/09/01 06:14:07;;;;;;;8.67;7.77;;;20.50;83.80;21.10;96669.00;;;;5111902;28;20207;-85
2022/09/01 06:16:36;;;;;;;7.80;7.13;;;20.50;83.80;21.20;96685.00;;;;5111465;28;20202;-85
2022/09/01 06:19:05;;;;;;;8.20;7.37;;;20.60;83.80;21.20;96686.00;;;;5111085;28;20226;-85
2022/09/01 06:21:32;;;;;;;8.83;7.93;;;20.60;84.30;21.20;96690.00;;;;5111753;28;20597;-85
2022/09/01 06:24:00;;;;;;;8.23;7.43;;;20.60;83.50;21.20;96683.00;;;;5111679;28;20223;-85
2022/09/01 06:26:30;;;;;;;7.73;7.00;;;20.60;83.60;21.30;96681.00;;;;5111511;28;20202;-85
2022/09/01 06:29:02;;;;;;;7.10;6.60;;;20.60;83.50;21.30;96689.00;;;;5111449;28;20305;-83
2022/09/01 06:31:33;;;;;;;7.57;6.73;;;20.60;83.50;21.30;96679.00;;;;5111679;28;20648;-85
2022/09/01 06:34:04;;;;;;;8.20;7.40;;;20.70;83.60;21.30;96684.00;;;;5111542;28;20575;-85
2022/09/01 06:36:32;;;;;;;8.43;7.63;;;20.70;83.50;21.30;96694.00;;;;5111736;28;20228;-85
2022/09/01 06:39:00;;;;;;;7.83;7.03;;;20.70;83.50;21.40;96698.00;;;;5112039;28;20226;-85
2022/09/01 06:41:30;;;;;;;7.33;6.63;;;20.80;83.50;21.40;96694.00;;;;5129480;28;20201;-85
2022/09/01 06:44:00;;;;;;;8.10;7.37;;;20.80;83.50;21.40;96697.00;;;;5111851;28;20253;-85
2022/09/01 06:46:28;;;;;;;8.17;7.47;;;20.80;83.40;21.50;96694.00;;;;5111508;28;20301;-86
2022/09/01 06:48:57;;;;;;;8.13;7.33;;;20.90;83.50;21.50;96696.00;;;;5111610;28;20248;-85
2022/09/01 06:51:28;;;;;;;7.90;7.20;;;20.90;83.70;21.60;96693.00;;;;5113012;28;20206;-85
2022/09/01 06:53:58;;;;;;;8.00;7.30;;;20.90;83.60;21.60;96702.00;;;;5115291;28;20199;-86
2022/09/01 06:56:30;;;;;;;7.57;6.80;;;20.90;83.40;21.70;96703.00;;;;5115299;28;20228;-86
2022/09/01 06:58:58;;;;;;;7.30;6.67;;;21.10;83.30;21.70;96711.00;;;;5115656;28;20225;-85
2022/09/01 07:01:26;;;;;;;6.83;6.30;;;21.00;83.20;21.70;96715.00;;;;5114602;28;20566;-86
2022/09/01 07:03:55;;;;;;;7.20;6.60;;;21.10;83.00;21.70;96704.00;;;;5094457;28;20201;-86
2022/09/01 07:06:27;;;;;;;7.30;6.70;;;21.10;82.80;21.70;96713.00;;;;5094887;28;20206;-84
2022/09/01 07:08:54;;;;;;;6.90;6.30;;;21.10;82.90;21.80;96708.00;;;;5094772;28;20766;-85
2022/09/01 07:11:26;;;;;;;7.23;6.63;;;21.10;82.90;21.80;96713.00;;;;5094658;28;20207;-86
2022/09/01 07:13:56;;;;;;;6.97;6.27;;;21.20;82.80;21.90;96718.00;;;;5094645;28;20253;-86
2022/09/01 07:16:26;;;;;;;6.80;6.30;;;21.20;82.90;21.90;96715.00;;;;5093997;28;20209;-85
2022/09/01 07:18:59;;;;;;;6.77;6.20;;;21.30;82.90;22.00;96721.00;;;;5093523;28;20247;-86
2022/09/01 07:21:30;;;;;;;6.63;6.03;;;21.30;82.90;22.00;96722.00;;;;5094806;28;20233;-86
2022/09/01 07:24:00;;;;;;;6.47;5.97;;;21.40;82.90;22.10;96724.00;;;;5094718;28;20257;-86
2022/09/01 07:26:28;;;;;;;5.63;5.13;;;21.40;83.00;22.20;96725.00;;;;5094362;28;20211;-86
2022/09/01 07:28:57;;;;;;;6.00;5.50;;;21.40;82.60;22.30;96722.00;;;;5093397;28;20248;-85
2022/09/01 07:31:29;;;;;;;5.63;5.23;;;21.50;82.60;22.30;96731.00;;;;5094546;28;20620;-86
2022/09/01 07:34:00;;;;;;;5.73;5.23;;;21.50;82.50;22.40;96726.00;;;;5114623;28;20209;-87
2022/09/01 07:36:28;;;;;;;5.90;5.40;;;21.60;83.00;22.40;96729.00;;;;5114342;28;20224;-85
2022/09/01 07:38:55;;;;;;;6.10;5.60;;;21.60;81.70;22.50;96736.00;;;;5114640;28;20260;-85
2022/09/01 07:41:25;;;;;;;5.70;5.20;;;21.70;81.60;22.50;96739.00;;;;5114575;28;20205;-86
2022/09/01 07:43:55;;;;;;;5.33;4.93;;;21.70;81.40;22.60;96733.00;;;;5114313;28;20226;-86
2022/09/01 07:46:24;;;;;;;5.67;5.17;;;21.80;81.40;22.60;96742.00;;;;5114297;27;20686;-86
2022/09/01 07:48:54;;;;;;;5.57;5.17;;;21.80;81.30;22.70;96740.00;;;;5114986;28;20215;-86
2022/09/01 07:51:23;;;;;;;5.20;4.80;;;21.90;81.20;22.70;96741.00;;;;5114184;28;20201;-85
2022/09/01 07:53:53;;;;;;;5.03;4.73;;;21.90;81.00;22.70;96736.00;;;;5114275;28;20198;-85
2022/09/01 07:56:23;;;;;;;5.47;5.00;;;22.00;80.90;22.80;96740.00;;;;5113932;28;20739;-85
2022/09/01 07:58:52;;;;;;;4.43;4.13;;;22.00;80.80;22.80;96743.00;;;;5114103;28;20774;-85
2022/09/01 08:01:22;;;;;;;5.03;4.63;;;22.00;80.40;22.80;96750.00;;;;5113258;28;20250;-85
2022/09/01 08:03:54;;;;;;;4.80;4.50;;;22.00;80.20;22.80;96744.00;;;;5113209;28;20191;-86
2022/09/01 08:06:25;;;;;;;4.97;4.57;;;22.10;80.10;22.90;96740.00;;;;5093658;28;20636;-86
2022/09/01 08:08:57;;;;;;;5.03;4.43;;;22.10;80.30;23.00;96743.00;;;;5094282;28;20684;-85
2022/09/01 08:11:27;;;;;;;4.80;4.47;;;22.20;80.10;23.00;96751.00;;;;5093659;28;20294;-86
2022/09/01 08:13:57;;;;;;;5.00;4.60;;;22.20;80.00;23.00;96748.00;;;;5093347;28;20660;-85
2022/09/01 08:16:25;;;;;;;4.17;3.93;;;22.20;79.60;23.10;96752.00;;;;5100128;28;20195;-86
2022/09/01 08:18:53;;;;;;;4.50;4.10;;;22.30;79.20;23.10;96752.00;;;;5113719;28;20257;-86
2022/09/01 08:21:23;;;;;;;7.50;3.80;;;22.30;78.80;23.10;96758.00;;;;5110901;28;20237;-86
2022/09/01 08:23:54;;;;;;;3.53;3.33;;;22.40;79.20;23.10;96761.00;;;;5113828;28;20282;-84
2022/09/01 08:26:25;;;;;;;3.70;3.43;;;22.40;78.60;23.20;96768.00;;;;5113582;28;20198;-85
2022/09/01 08:28:54;;;;;;;4.37;3.97;;;22.40;77.80;23.20;96769.00;;;;5113792;28;20237;-86
2022/09/01 08:31:24;;;;;;;4.40;4.00;;;22.40;77.60;23.20;96772.00;;;;5109452;28;20221;-86
2022/09/01 08:33:52;;;;;;;3.70;3.50;;;22.50;77.40;23.20;96774.00;;;;5113408;28;20199;-85
2022/09/01 08:36:19;;;;;;;3.80;3.60;;;22.50;76.90;23.20;96779.00;;;;5112824;28;20237;-85
2022/09/01 08:38:46;;;;;;;3.87;3.57;;;22.50;76.70;23.20;96778.00;;;;5113284;28;20265;-86
2022/09/01 08:41:27;;;;;;;4.43;4.03;;;22.50;76.20;23.20;96785.00;;;;5106804;28;20618;-86
2022/09/01 08:44:10;;;;;;;4.30;4.00;;;22.50;75.70;23.10;96785.00;;;;5092814;28;20201;-86
2022/09/01 08:46:41;;;;;;;3.87;3.63;;;22.50;75.50;23.10;96783.00;;;;5092374;28;20202;-86
2022/09/01 08:49:15;;;;;;;4.67;4.37;;;22.50;75.70;23.10;96782.00;;;;5092550;28;20579;-85
2022/09/01 08:51:50;;;;;;;4.97;4.57;;;22.50;75.50;23.00;96792.00;;;;5101338;28;20753;-85
2022/09/01 08:54:24;;;;;;;4.33;4.03;;;22.50;74.70;23.00;96787.00;;;;5113097;28;20202;-86
2022/09/01 08:56:59;;;;;;;5.53;3.70;;;22.40;74.80;23.00;96792.00;;;;5112656;28;20238;-85
2022/09/01 08:59:27;;;;;;;4.17;3.87;;;22.40;75.50;23.00;96788.00;;;;5112010;28;20641;-85
2022/09/01 09:02:16;;;;;;;3.73;3.43;;;22.40;76.00;23.00;96796.00;;;;5112926;28;20194;-87
2022/09/01 09:04:56;;;;;;;3.80;3.47;;;22.40;75.60;23.00;96788.00;;;;5112610;27;20203;-84
2022/09/01 09:07:46;;;;;;;3.90;3.60;;;22.40;76.20;23.00;96788.00;;;;5112826;28;20759;-87
2022/09/01 09:10:20;;;;;;;3.50;3.30;;;22.40;75.80;23.00;96784.00;;;;5112584;28;20218;-86
2022/09/01 09:13:07;;;;;;;4.03;3.77;;;22.30;76.00;23.00;96792.00;;;;5112629;28;20215;-86
2022/09/01 09:15:43;;;;;;;3.97;3.77;;;22.30;75.50;23.00;96788.00;;;;5111931;28;20206;-85
2022/09/01 09:18:25;;;;;;;4.47;3.80;;;22.30;75.30;23.00;96791.00;;;;5113173;28;20241;-85
2022/09/01 09:20:53;;;;;;;4.50;3.37;;;22.30;74.60;23.10;96786.00;;;;5112620;28;20595;-86
2022/09/01 09:23:29;;;;;;;4.00;3.70;;;22.40;75.50;23.10;96786.00;;;;5133523;28;20336;-85
2022/09/01 09:25:57;;;;;;;3.40;3.17;;;22.40;76.20;23.20;96785.00;;;;5112404;28;20630;-87
2022/09/01 09:28:25;;;;;;;3.40;3.10;;;22.40;76.40;23.30;96789.00;;;;5112422;28;20224;-86
2022/09/01 09:31:32;;;;;;;2.83;2.63;;;22.50;76.60;23.40;96784.00;;;;5112203;28;20238;-87
2022/09/01 09:34:02;;;;;;;2.20;2.10;;;22.60;76.50;23.50;96776.00;;;;5091511;28;20230;-85
2022/09/01 09:36:34;;;;;;;2.07;1.97;;;22.60;76.90;23.60;96779.00;;;;5091446;28;20623;-87
2022/09/01 09:39:11;;;;;;;3.70;2.30;;;22.70;76.50;23.80;96775.00;;;;5091909;28;20254;-86
2022/09/01 09:41:41;;;;;;;2.63;2.23;;;22.80;74.90;24.00;96776.00;;;;5091312;28;20227;-87
2022/09/01 09:44:25;;;;;;;2.20;2.10;;;22.90;76.00;24.30;96776.00;;;;5091664;28;20628;-87
2022/09/01 09:46:52;;;;;;;2.47;2.30;;;23.10;76.40;24.50;96781.00;;;;5091569;28;20282;-87
2022/09/01 09:49:24;;;;;;;2.13;2.03;;;23.30;77.10;24.70;96775.00;;;;5091668;28;20615;-87
2022/09/01 09:51:54;;;;;;;2.20;2.10;;;23.40;76.20;24.90;96779.00;;;;5091476;28;20200;-87
2022/09/01 09:54:26;;;;;;;2.03;1.93;;;23.60;76.10;25.10;96781.00;;;;5091848;28;20228;-86
2022/09/01 09:57:12;;;;;;;1.87;1.77;;;23.80;75.90;25.30;96776.00;;;;5091858;28;20335;-87
2022/09/01 09:59:46;;;;;;;1.70;1.60;;;24.00;72.00;25.50;96780.00;;;;5091263;28;20209;-87
2022/09/01 10:02:31;;;;;;;2.07;1.80;;;24.20;74.10;25.70;96771.00;;;;5099338;28;20696;-87
2022/09/01 10:05:00;;;;;;;2.47;1.90;;;24.40;72.40;25.80;96773.00;;;;5111662;28;20190;-87
2022/09/01 10:07:35;;;;;;;1.83;1.67;;;24.60;73.70;26.00;96769.00;;;;5111089;28;20661;-87
2022/09/01 10:10:07;;;;;;;1.80;1.70;;;24.80;72.50;26.10;96771.00;;;;5111677;28;20214;-87
2022/09/01 10:12:34;;;;;;;1.57;1.47;;;25.00;72.50;26.30;96767.00;;;;5112099;28;20233;-87
2022/09/01 10:15:07;;;;;;;1.40;1.30;;;25.10;72.10;26.50;96773.00;;;;5111624;28;20277;-87
2022/09/01 10:17:40;;;;;;;1.50;1.37;;;25.30;71.40;26.70;96766.00;;;;5111556;28;20250;-88
2022/09/01 10:20:15;;;;;;;1.50;1.20;;;25.50;71.20;26.90;96762.00;;;;5112044;28;20198;-87
2022/09/01 10:22:43;;;;;;;1.43;1.33;;;25.70;70.40;27.10;96772.00;;;;5111812;28;20197;-88
2022/09/01 10:25:19;;;;;;;1.20;1.10;;;25.90;70.10;27.40;96772.00;;;;5110201;28;20233;-87
2022/09/01 10:27:52;;;;;;;1.40;1.30;;;26.10;69.70;27.60;96772.00;;;;5115822;28;20718;-86
2022/09/01 10:30:22;;;;;;;1.50;1.27;;;26.30;69.10;27.70;96776.00;;;;5115978;28;20297;-88
2022/09/01 10:32:54;;;;;;;3.83;1.50;;;26.50;68.70;27.80;96771.00;;;;5103449;28;20196;-87
2022/09/01 10:35:26;;;;;;;1.03;1.03;;;26.70;67.40;27.80;96765.00;;;;5095534;28;20266;-87
2022/09/01 10:37:58;;;;;;;1.30;1.20;;;26.80;66.50;27.80;96774.00;;;;5114020;22;20246;-84
2022/09/01 10:40:45;;;;;;;1.20;1.20;;;26.90;65.70;27.70;96771.00;;;;5115876;28;20222;-84
2022/09/01 10:43:41;;;;;;;1.43;1.33;;;26.90;63.40;27.70;96773.00;;;;5116272;28;20251;-84
2022/09/01 10:46:44;;;;;;;1.30;1.30;;;26.90;61.90;27.60;96768.00;;;;5116594;28;20206;-84
2022/09/01 10:49:48;;;;;;;1.30;1.20;;;26.90;62.40;27.60;96768.00;;;;5116907;28;20681;-84
2022/09/01 10:52:56;;;;;;;1.30;1.20;;;26.80;63.10;27.70;96773.00;;;;5116589;28;20234;-84
2022/09/01 10:55:30;;;;;;;1.20;1.10;;;26.80;63.20;27.70;96770.00;;;;5117480;28;20285;-84
2022/09/01 10:58:16;;;;;;;1.77;1.30;;;26.80;64.00;27.70;96770.00;;;;5116472;27;20218;-84
2022/09/01 11:00:50;;;;;;;1.10;1.10;;;26.80;62.90;27.70;96776.00;;;;5117154;28;20218;-84
2022/09/01 11:03:56;;;;;;;1.17;1.10;;;26.80;62.20;27.70;96766.00;;;;5117218;28;20614;-84
2022/09/01 11:06:57;;;;;;;1.07;1.07;;;26.80;61.70;27.60;96769.00;;;;5116211;28;20220;-84
2022/09/01 11:09:33;;;;;;;3.13;1.20;;;26.80;62.60;27.60;96775.00;;;;5115837;28;20748;-84
2022/09/01 11:12:32;;;;;;;1.03;1.03;;;26.80;63.20;27.50;96761.00;;;;5115581;28;20642;-85
2022/09/01 11:15:05;;;;;;;1.10;1.10;;;26.70;61.60;27.50;96762.00;;;;5114678;28;20255;-85
2022/09/01 11:17:36;;;;;;;1.27;1.17;;;26.70;63.20;27.50;96764.00;;;;5114957;27;20198;-85
2022/09/01 11:20:22;;;;;;;1.43;1.33;;;26.60;63.00;27.50;96764.00;;;;5116062;28;20635;-85
2022/09/01 11:23:03;;;;;;;1.20;1.10;;;26.60;62.20;27.40;96763.00;;;;5115665;28;20254;-85